Time;durP1;ratioP1;P1;durP2;ratioP2;P2;SDS_P1;SDS_P2;PMS_P1;PMS_P2;Temp;Humidity;BMP_temperature;BMP_pressure;BME280_temperature;BME280_humidity;BME280_pressure;Samples;Min_cycle;Max_cycle;Signal;HPM_P1;HPM_P2
2022/08/24 00:01:19;;;;;;;1.75;1.00;;;22.80;99.90;;;;;;5027580;28;20588;-86
2022/08/24 00:03:47;;;;;;;1.73;1.60;;;22.90;99.90;;;;;;5022389;28;20093;-87
2022/08/24 00:06:20;;;;;;;1.50;1.00;;;22.80;99.90;;;;;;5010578;28;20060;-87
2022/08/24 00:08:51;;;;;;;1.10;0.88;;;22.80;99.90;;;;;;5027596;28;20831;-87
2022/08/24 00:11:17;;;;;;;1.27;0.88;;;22.80;99.90;;;;;;5012908;28;20055;-87
2022/08/24 00:13:45;;;;;;;1.30;0.90;;;22.80;99.90;;;;;;5023215;28;20777;-88
2022/08/24 00:16:12;;;;;;;2.92;1.10;;;22.80;99.90;;;;;;5008872;28;20047;-88
2022/08/24 00:18:43;;;;;;;1.23;1.00;;;22.80;99.90;;;;;;5012707;28;20047;-88
2022/08/24 00:21:18;;;;;;;2.78;0.95;;;22.70;99.90;;;;;;4946328;28;20538;-88
2022/08/24 00:23:50;;;;;;;1.55;1.00;;;22.70;99.90;;;;;;5024141;28;20050;-88
2022/08/24 00:26:24;;;;;;;1.02;0.75;;;22.70;99.90;;;;;;4947811;28;20186;-88
2022/08/24 00:28:52;;;;;;;2.80;1.08;;;22.70;99.90;;;;;;5006582;28;20147;-88
2022/08/24 00:31:18;;;;;;;1.45;0.80;;;22.70;99.90;;;;;;5011711;28;20040;-88
2022/08/24 00:33:46;;;;;;;1.17;0.90;;;22.60;99.90;;;;;;5032913;28;20058;-88
2022/08/24 00:36:16;;;;;;;1.27;0.82;;;22.60;99.90;;;;;;5037219;28;20048;-88
2022/08/24 00:38:43;;;;;;;1.60;1.05;;;22.60;99.90;;;;;;4975087;28;20070;-88
2022/08/24 00:41:13;;;;;;;0.80;0.73;;;22.60;99.90;;;;;;4966701;28;20968;-88
2022/08/24 00:43:39;;;;;;;2.40;0.93;;;22.60;99.90;;;;;;4946822;28;20051;-88
2022/08/24 00:46:26;;;;;;;1.60;0.77;;;22.60;99.90;;;;;;4947706;28;20105;-88
2022/08/24 00:49:06;;;;;;;1.88;0.98;;;22.60;99.90;;;;;;4963519;28;20054;-88
2022/08/24 00:51:42;;;;;;;1.35;0.90;;;22.60;99.90;;;;;;5007989;28;20044;-88
2022/08/24 00:54:14;;;;;;;0.98;0.70;;;22.60;99.90;;;;;;5012477;28;20940;-88
2022/08/24 00:56:46;;;;;;;1.20;1.00;;;22.50;99.90;;;;;;4947370;28;21195;-87
2022/08/24 00:59:25;;;;;;;0.90;0.80;;;22.50;99.90;;;;;;5004274;28;20043;-87
2022/08/24 01:01:52;;;;;;;2.05;0.95;;;22.50;99.90;;;;;;5003375;28;20098;-86
2022/08/24 01:04:27;;;;;;;1.70;0.95;;;22.50;99.90;;;;;;5002566;28;20044;-86
2022/08/24 01:06:55;;;;;;;1.00;0.90;;;22.40;99.90;;;;;;5010350;28;20229;-87
2022/08/24 01:09:21;;;;;;;1.77;1.02;;;22.40;99.90;;;;;;5030146;28;20042;-87
2022/08/24 01:11:48;;;;;;;1.33;0.90;;;22.40;99.90;;;;;;5011880;28;20066;-87
2022/08/24 01:14:17;;;;;;;3.60;1.10;;;22.40;99.90;;;;;;5014723;28;20053;-86
2022/08/24 01:19:37;;;;;;;2.65;1.48;;;22.30;99.90;;;;;;5014972;28;20054;-86
2022/08/24 01:22:09;;;;;;;1.75;1.33;;;22.30;99.90;;;;;;5016694;28;20061;-88
2022/08/24 01:24:36;;;;;;;1.85;1.08;;;22.30;99.90;;;;;;5016226;28;20038;-87
2022/08/24 01:27:03;;;;;;;1.77;1.10;;;22.30;99.90;;;;;;5016527;28;20615;-87
2022/08/24 01:29:30;;;;;;;1.20;0.85;;;22.30;99.90;;;;;;5016261;28;20986;-88
2022/08/24 01:31:57;;;;;;;1.33;1.00;;;22.20;99.90;;;;;;5016191;28;20041;-88
2022/08/24 01:34:25;;;;;;;1.00;1.00;;;22.20;99.90;;;;;;5032078;28;20128;-87
2022/08/24 01:36:55;;;;;;;1.70;0.90;;;22.20;99.90;;;;;;5013513;28;20100;-88
2022/08/24 01:39:39;;;;;;;1.45;0.85;;;22.10;99.90;;;;;;5015011;28;20064;-88
2022/08/24 01:42:05;;;;;;;1.77;1.15;;;22.10;99.90;;;;;;5014227;28;21283;-87
2022/08/24 01:44:33;;;;;;;1.00;0.80;;;22.10;99.90;;;;;;5017233;28;20111;-88
2022/08/24 01:47:00;;;;;;;1.60;0.98;;;22.10;99.90;;;;;;5016082;28;20038;-87
2022/08/24 01:49:29;;;;;;;1.10;0.82;;;22.10;99.90;;;;;;5013652;28;20093;-87
2022/08/24 01:51:56;;;;;;;2.05;0.88;;;22.10;99.90;;;;;;5009018;28;20118;-88
2022/08/24 01:54:22;;;;;;;1.83;1.02;;;22.00;99.90;;;;;;5018153;28;20615;-88
2022/08/24 01:56:48;;;;;;;1.55;1.02;;;22.10;99.90;;;;;;5013574;28;20136;-86
2022/08/24 01:59:13;;;;;;;1.15;0.60;;;22.00;99.90;;;;;;5033563;28;20136;-88
2022/08/24 02:01:44;;;;;;;3.90;1.30;;;22.00;99.90;;;;;;5013215;28;20052;-88
2022/08/24 02:04:10;;;;;;;1.33;0.90;;;22.00;99.90;;;;;;5015961;28;20100;-88
2022/08/24 02:06:37;;;;;;;10.15;1.27;;;22.00;99.90;;;;;;4990920;28;20636;-87
2022/08/24 02:09:03;;;;;;;2.83;0.80;;;22.00;99.90;;;;;;5001707;28;20098;-87
2022/08/24 02:11:29;;;;;;;2.10;1.02;;;22.00;99.90;;;;;;5000492;28;20036;-87
2022/08/24 02:13:55;;;;;;;2.20;0.88;;;22.00;99.90;;;;;;5001520;28;20052;-88
2022/08/24 02:16:22;;;;;;;1.83;0.93;;;22.00;99.90;;;;;;5016507;28;20052;-88
2022/08/24 02:18:48;;;;;;;0.80;0.80;;;21.90;99.90;;;;;;5006152;28;20170;-87
2022/08/24 02:21:15;;;;;;;1.52;1.10;;;21.90;99.90;;;;;;5000729;28;20054;-88
2022/08/24 02:23:42;;;;;;;1.65;0.95;;;21.90;99.90;;;;;;4996212;28;20048;-88
2022/08/24 02:26:09;;;;;;;2.60;0.98;;;21.90;99.90;;;;;;4999103;28;20095;-87
2022/08/24 02:28:37;;;;;;;2.72;1.00;;;21.90;99.90;;;;;;4999439;28;20169;-87
2022/08/24 02:31:04;;;;;;;2.88;1.23;;;21.80;99.90;;;;;;4999651;28;20047;-88
2022/08/24 02:33:33;;;;;;;1.33;1.00;;;21.80;99.90;;;;;;4934373;28;20044;-87
2022/08/24 02:35:59;;;;;;;1.50;1.38;;;21.80;99.90;;;;;;5000064;28;20156;-87
2022/08/24 02:38:25;;;;;;;3.15;1.25;;;21.70;99.90;;;;;;5003287;28;20183;-88
2022/08/24 02:40:50;;;;;;;1.85;1.10;;;21.70;99.90;;;;;;5002163;28;20209;-88
2022/08/24 02:43:16;;;;;;;1.65;0.95;;;21.70;99.90;;;;;;5001010;28;20048;-87
2022/08/24 02:45:45;;;;;;;2.45;0.95;;;21.70;99.90;;;;;;5001930;28;20059;-88
2022/08/24 02:48:12;;;;;;;1.38;0.77;;;21.70;99.90;;;;;;4938051;28;20081;-89
2022/08/24 02:50:39;;;;;;;2.80;1.05;;;21.70;99.90;;;;;;5000940;28;20054;-87
2022/08/24 02:53:05;;;;;;;2.53;0.95;;;21.70;99.90;;;;;;5001487;28;20044;-88
2022/08/24 02:55:31;;;;;;;6.10;2.03;;;21.70;99.90;;;;;;5001305;28;20047;-87
2022/08/24 02:57:57;;;;;;;5.32;1.33;;;21.70;99.90;;;;;;4997574;28;20054;-87
2022/08/24 03:00:24;;;;;;;1.77;1.20;;;21.70;99.90;;;;;;5012331;28;20210;-87
2022/08/24 03:02:50;;;;;;;2.28;1.20;;;21.70;99.90;;;;;;4998884;28;20055;-88
2022/08/24 03:05:16;;;;;;;2.10;0.90;;;21.60;99.90;;;;;;5002611;28;20036;-87
2022/08/24 03:07:42;;;;;;;1.52;1.10;;;21.60;99.90;;;;;;5003325;28;20059;-87
2022/08/24 03:10:10;;;;;;;1.02;0.75;;;21.60;99.90;;;;;;4996360;28;21269;-87
2022/08/24 03:12:36;;;;;;;1.33;0.95;;;21.60;99.90;;;;;;5015962;28;20048;-87
2022/08/24 03:15:05;;;;;;;2.80;1.73;;;21.60;99.90;;;;;;5007224;28;20172;-87
2022/08/24 03:17:32;;;;;;;1.08;0.70;;;21.60;99.90;;;;;;5013637;28;20529;-87
2022/08/24 03:19:59;;;;;;;1.35;0.98;;;21.50;99.90;;;;;;4934091;28;20040;-88
2022/08/24 03:22:25;;;;;;;1.75;1.10;;;21.50;99.90;;;;;;5018492;28;20071;-87
2022/08/24 03:24:52;;;;;;;1.15;0.90;;;21.50;99.90;;;;;;5019363;28;20117;-87
2022/08/24 03:27:18;;;;;;;1.88;1.10;;;21.50;99.90;;;;;;4938258;28;20048;-87
2022/08/24 03:29:44;;;;;;;1.95;1.15;;;21.50;99.90;;;;;;5004121;28;20043;-87
2022/08/24 03:32:10;;;;;;;0.80;0.77;;;21.40;99.90;;;;;;5007162;28;20044;-87
2022/08/24 03:34:39;;;;;;;1.40;1.00;;;21.40;99.90;;;;;;5005084;28;20048;-87
2022/08/24 03:37:05;;;;;;;1.70;1.13;;;21.40;99.90;;;;;;5022967;28;20052;-87
2022/08/24 03:39:34;;;;;;;1.20;1.00;;;21.40;99.90;;;;;;5015960;28;20048;-88
2022/08/24 03:42:12;;;;;;;2.72;1.30;;;21.40;99.90;;;;;;5024659;28;20051;-88
2022/08/24 03:44:38;;;;;;;2.55;1.10;;;21.40;99.90;;;;;;5024477;28;20048;-88
2022/08/24 03:47:04;;;;;;;2.72;1.13;;;21.40;99.90;;;;;;5034803;28;20044;-87
2022/08/24 03:49:31;;;;;;;1.10;1.00;;;21.40;99.90;;;;;;5028105;28;20028;-88
2022/08/24 03:51:58;;;;;;;2.85;1.15;;;21.40;99.90;;;;;;5010389;28;20060;-88
2022/08/24 03:54:24;;;;;;;1.20;1.00;;;21.30;99.90;;;;;;5000576;28;20044;-88
2022/08/24 03:56:50;;;;;;;1.27;1.10;;;21.30;99.90;;;;;;4941068;28;20049;-87
2022/08/24 03:59:16;;;;;;;1.52;1.00;;;21.30;99.90;;;;;;5009582;28;20051;-89
2022/08/24 04:01:42;;;;;;;2.25;1.20;;;21.30;99.90;;;;;;5013611;28;20049;-88
2022/08/24 04:04:09;;;;;;;3.33;1.58;;;21.30;99.90;;;;;;5001565;28;20427;-88
2022/08/24 04:06:35;;;;;;;3.70;1.20;;;21.30;99.90;;;;;;5012513;28;20065;-88
2022/08/24 04:09:01;;;;;;;2.50;1.10;;;21.30;99.90;;;;;;5011087;28;20053;-88
2022/08/24 04:11:28;;;;;;;2.00;1.10;;;21.20;99.90;;;;;;5015755;28;20044;-89
2022/08/24 04:13:55;;;;;;;2.97;0.82;;;21.20;99.90;;;;;;5015465;28;20050;-88
2022/08/24 04:16:28;;;;;;;3.42;1.10;;;21.20;99.90;;;;;;5016002;28;20046;-89
2022/08/24 04:18:56;;;;;;;1.60;1.00;;;21.20;99.90;;;;;;5017173;28;20136;-85
2022/08/24 04:21:30;;;;;;;1.25;0.85;;;21.20;99.90;;;;;;5014186;28;20046;-88
2022/08/24 04:23:56;;;;;;;3.78;1.30;;;21.20;99.90;;;;;;5020530;28;20492;-86
2022/08/24 04:26:28;;;;;;;1.70;1.10;;;21.20;99.90;;;;;;5011139;28;20061;-87
2022/08/24 04:28:54;;;;;;;1.75;1.05;;;21.10;99.90;;;;;;5030781;28;20639;-87
2022/08/24 04:31:21;;;;;;;3.88;1.67;;;21.10;99.90;;;;;;5015136;28;20072;-88
2022/08/24 04:33:50;;;;;;;2.25;1.30;;;21.10;99.90;;;;;;5017392;28;20065;-88
2022/08/24 04:36:18;;;;;;;5.93;2.03;;;21.20;99.90;;;;;;5019752;28;20141;-88
2022/08/24 04:38:47;;;;;;;3.78;1.13;;;21.10;99.90;;;;;;5018526;28;20053;-88
2022/08/24 04:41:14;;;;;;;2.58;1.77;;;21.10;99.90;;;;;;5022001;28;20042;-85
2022/08/24 04:43:44;;;;;;;2.25;1.38;;;21.10;99.90;;;;;;5006841;28;20520;-85
2022/08/24 04:46:14;;;;;;;5.20;1.42;;;21.10;99.90;;;;;;5005266;28;20046;-83
2022/08/24 04:48:41;;;;;;;4.97;1.60;;;21.00;99.90;;;;;;4999879;28;20125;-85
2022/08/24 04:51:08;;;;;;;3.55;1.65;;;21.00;99.90;;;;;;5007912;28;20999;-86
2022/08/24 04:53:35;;;;;;;6.45;1.48;;;21.00;99.90;;;;;;5005729;28;20069;-85
2022/08/24 04:56:01;;;;;;;2.40;1.30;;;21.00;99.90;;;;;;5007060;28;20073;-84
2022/08/24 04:58:28;;;;;;;1.88;1.33;;;21.00;99.90;;;;;;5006678;28;20034;-84
2022/08/24 05:00:54;;;;;;;3.00;1.33;;;21.00;99.90;;;;;;5007522;28;21277;-85
2022/08/24 05:03:21;;;;;;;5.57;2.25;;;20.90;99.90;;;;;;5006385;28;20133;-84
2022/08/24 05:05:49;;;;;;;3.05;1.73;;;20.90;99.90;;;;;;5006431;28;20503;-83
2022/08/24 05:08:16;;;;;;;3.65;1.73;;;20.90;99.90;;;;;;5005845;28;20057;-85
2022/08/24 05:10:45;;;;;;;2.00;1.58;;;20.90;99.90;;;;;;5006905;28;20042;-85
2022/08/24 05:13:10;;;;;;;4.68;1.80;;;20.90;99.90;;;;;;5008902;28;20046;-86
2022/08/24 05:15:41;;;;;;;2.53;1.50;;;20.90;99.90;;;;;;5001568;28;20576;-85
2022/08/24 05:18:07;;;;;;;5.27;1.67;;;20.90;99.90;;;;;;5002323;28;20038;-83
2022/08/24 05:20:34;;;;;;;3.25;1.40;;;20.90;99.90;;;;;;5005220;28;20077;-85
2022/08/24 05:23:01;;;;;;;2.33;1.50;;;20.90;99.90;;;;;;5007781;28;20041;-84
2022/08/24 05:25:27;;;;;;;3.08;2.15;;;20.90;99.90;;;;;;5005506;28;20053;-84
2022/08/24 05:27:53;;;;;;;4.40;1.65;;;20.90;99.90;;;;;;5009983;28;20048;-84
2022/08/24 05:30:19;;;;;;;9.80;2.50;;;20.90;99.90;;;;;;5026814;28;20061;-84
2022/08/24 05:32:45;;;;;;;6.75;2.28;;;20.90;99.90;;;;;;5008864;28;20042;-84
2022/08/24 05:35:12;;;;;;;5.03;1.92;;;20.90;99.90;;;;;;5010689;28;20043;-84
2022/08/24 05:37:38;;;;;;;3.88;1.70;;;20.90;99.90;;;;;;5018099;28;20050;-84
2022/08/24 05:40:07;;;;;;;7.30;1.83;;;20.90;99.90;;;;;;5016570;28;20565;-84
2022/08/24 05:42:34;;;;;;;17.58;3.58;;;20.90;99.90;;;;;;5009948;28;20092;-84
2022/08/24 05:45:00;;;;;;;6.55;2.67;;;20.90;99.90;;;;;;5026663;28;20088;-84
2022/08/24 05:47:27;;;;;;;5.07;2.10;;;20.90;99.90;;;;;;5016360;28;20610;-84
2022/08/24 05:49:52;;;;;;;9.02;2.38;;;20.90;99.90;;;;;;5027690;28;20046;-85
2022/08/24 05:52:20;;;;;;;8.30;2.83;;;;;;;;;;5013211;28;20517;-85
2022/08/24 05:54:50;;;;;;;10.07;2.35;;;;;;;;;;5012769;28;20138;-85
2022/08/24 05:57:16;;;;;;;8.75;2.90;;;;;;;;;;5012706;28;20070;-85
2022/08/24 05:59:42;;;;;;;13.15;3.10;;;;;;;;;;5010837;28;20755;-85
2022/08/24 06:02:08;;;;;;;6.50;2.30;;;;;;;;;;5006680;28;20764;-85
2022/08/24 06:04:36;;;;;;;9.30;2.08;;;;;;;;;;5010563;28;20046;-85
2022/08/24 06:07:03;;;;;;;19.52;3.38;;;;;;;;;;4977671;28;20062;-85
2022/08/24 06:09:39;;;;;;;5.18;2.58;;;;;;;;;;5009961;28;20031;-86
2022/08/24 06:12:07;;;;;;;9.85;2.20;;;;;;;;;;4999057;28;20540;-86
2022/08/24 06:14:34;;;;;;;9.30;2.47;;;;;;;;;;5014172;28;20055;-86
2022/08/24 06:17:02;;;;;;;4.18;2.40;;;;;;;;;;4998685;28;20078;-84
2022/08/24 06:19:28;;;;;;;6.78;2.40;;;;;;;;;;4998625;28;20052;-83
2022/08/24 06:21:55;;;;;;;3.35;1.92;;;;;;;;;;4993123;28;20469;-83
2022/08/24 06:27:22;;;;;;;9.23;3.63;;;;;;;;;;4934676;28;20119;-83
2022/08/24 06:29:49;;;;;;;10.40;3.22;;;;;;;;;;5002632;28;20522;-84
2022/08/24 06:32:16;;;;;;;11.43;3.67;;;;;;;;;;4995098;28;20047;-83
2022/08/24 06:34:42;;;;;;;7.22;2.67;;;;;;;;;;5012324;28;20071;-83
2022/08/24 06:37:08;;;;;;;6.80;2.80;;;;;;;;;;5013805;28;20174;-84
2022/08/24 06:39:34;;;;;;;14.70;3.53;;;;;;;;;;5009337;28;20052;-85
2022/08/24 06:42:00;;;;;;;6.57;2.70;;;;;;;;;;5007131;28;20044;-84
2022/08/24 06:44:26;;;;;;;6.88;2.38;;;;;;;;;;5003940;28;20053;-84
2022/08/24 06:46:52;;;;;;;7.85;2.10;;;;;;;;;;5012422;28;20552;-84
2022/08/24 06:49:19;;;;;;;9.20;2.60;;;;;;;;;;5010800;28;20123;-84
2022/08/24 06:51:45;;;;;;;5.63;1.90;;;;;;;;;;4930702;28;20048;-84
2022/08/24 06:54:11;;;;;;;7.45;2.10;;;;;;;;;;5009458;28;20035;-84
2022/08/24 06:56:37;;;;;;;10.02;2.63;;;;;;;;;;5012018;28;20051;-83
2022/08/24 06:59:05;;;;;;;6.80;2.72;;;;;;;;;;5009924;28;20044;-83
2022/08/24 07:01:31;;;;;;;4.18;2.25;;;;;;;;;;4929855;28;20090;-84
2022/08/24 07:03:57;;;;;;;5.75;1.95;;;;;;;;;;5011386;28;20102;-84
2022/08/24 07:06:24;;;;;;;5.63;2.10;;;;;;;;;;5006214;28;20104;-83
2022/08/24 07:08:50;;;;;;;3.03;1.90;;;;;;;;;;5006907;28;20100;-84
2022/08/24 07:11:17;;;;;;;4.00;2.00;;;;;;;;;;5025722;28;20074;-83
2022/08/24 07:13:47;;;;;;;5.95;2.17;;;;;;;;;;5009761;28;20046;-84
2022/08/24 07:16:13;;;;;;;5.03;2.05;;;;;;;;;;5010805;28;20050;-85
2022/08/24 07:18:40;;;;;;;10.20;2.67;;;;;;;;;;5024390;28;20081;-85
2022/08/24 07:21:08;;;;;;;8.50;2.38;;;21.50;99.90;;;;;;5022709;28;20539;-84
2022/08/24 07:23:35;;;;;;;4.47;2.30;;;21.60;99.90;;;;;;5006745;28;20046;-82
2022/08/24 07:26:09;;;;;;;8.25;2.38;;;21.40;99.90;;;;;;5013968;28;20046;-84
2022/08/24 07:28:38;;;;;;;5.93;1.75;;;21.40;99.90;;;;;;5008546;28;20042;-84
2022/08/24 07:31:05;;;;;;;3.40;1.88;;;21.40;99.90;;;;;;5023208;28;20051;-84
2022/08/24 07:33:32;;;;;;;13.10;2.88;;;21.40;99.90;;;;;;5007897;28;20042;-85
2022/08/24 07:35:58;;;;;;;10.48;2.80;;;21.50;99.90;;;;;;5007533;28;20041;-85
2022/08/24 07:38:25;;;;;;;5.28;2.45;;;21.50;99.90;;;;;;5005996;28;20118;-85
2022/08/24 07:40:52;;;;;;;4.38;1.88;;;21.50;99.90;;;;;;5006192;28;20057;-85
2022/08/24 07:43:19;;;;;;;3.63;2.08;;;21.50;99.90;;;;;;5007157;28;20046;-84
2022/08/24 07:45:48;;;;;;;8.13;2.22;;;21.50;99.90;;;;;;5008210;28;20261;-85
2022/08/24 07:48:13;;;;;;;5.38;1.60;;;21.50;99.90;;;;;;5012679;28;20595;-84
2022/08/24 07:50:39;;;;;;;10.32;2.70;;;21.60;99.90;;;;;;5011094;28;20092;-85
2022/08/24 07:53:05;;;;;;;18.23;3.00;;;21.60;99.90;;;;;;5022511;28;20048;-83
2022/08/24 07:55:31;;;;;;;7.03;2.85;;;21.70;99.90;;;;;;5021952;28;20049;-83
2022/08/24 07:57:58;;;;;;;12.98;3.03;;;21.60;99.90;;;;;;5022791;28;20207;-84
2022/08/24 08:00:24;;;;;;;5.97;2.28;;;21.70;99.90;;;;;;5011315;28;20139;-83
2022/08/24 08:02:50;;;;;;;2.67;1.50;;;21.70;99.90;;;;;;5009273;28;20076;-84
2022/08/24 08:05:20;;;;;;;5.78;2.40;;;21.70;99.90;;;;;;5011312;28;20038;-84
2022/08/24 08:07:46;;;;;;;4.95;1.85;;;21.70;99.90;;;;;;5010203;28;20053;-84
2022/08/24 08:10:12;;;;;;;7.63;2.08;;;21.70;99.90;;;;;;5009235;28;20049;-84
2022/08/24 08:12:38;;;;;;;4.70;2.10;;;21.80;99.90;;;;;;5024183;28;20042;-85
2022/08/24 08:15:07;;;;;;;5.88;1.80;;;21.80;99.90;;;;;;5009571;28;20042;-84
2022/08/24 08:17:33;;;;;;;3.67;1.50;;;21.80;99.90;;;;;;5006250;28;20045;-82
2022/08/24 08:19:59;;;;;;;10.18;2.08;;;21.80;99.90;;;;;;5006544;28;20085;-83
2022/08/24 08:25:09;;;;;;;4.45;2.00;;;21.90;99.90;;;;;;5009426;28;20054;-83
2022/08/24 08:27:35;;;;;;;2.78;1.83;;;21.90;99.90;;;;;;5007688;28;20506;-83
2022/08/24 08:30:03;;;;;;;3.17;2.20;;;21.90;99.90;;;;;;5009119;28;20062;-83
2022/08/24 08:32:30;;;;;;;2.58;1.70;;;22.00;99.90;;;;;;5008622;28;20049;-82
2022/08/24 08:34:55;;;;;;;7.22;2.10;;;22.00;99.90;;;;;;5009361;28;20038;-83
2022/08/24 08:37:21;;;;;;;5.53;1.95;;;22.00;99.90;;;;;;5009378;28;20407;-83
2022/08/24 08:39:47;;;;;;;4.75;2.03;;;22.00;99.90;;;;;;5009922;28;20541;-84
2022/08/24 08:42:38;;;;;;;3.00;1.23;;;22.00;99.90;;;;;;5008304;28;20089;-83
2022/08/24 08:45:34;;;;;;;5.93;1.75;;;22.10;99.90;;;;;;5018786;28;20487;-83
2022/08/24 08:48:16;;;;;;;3.20;1.52;;;22.10;99.90;;;;;;5021884;28;20097;-83
2022/08/24 08:51:10;;;;;;;4.75;1.80;;;22.10;99.90;;;;;;5009496;28;20125;-83
2022/08/24 08:54:10;;;;;;;3.92;2.03;;;22.10;99.90;;;;;;5008607;28;20049;-83
2022/08/24 08:57:07;;;;;;;1.75;1.27;;;22.20;99.90;;;;;;5015632;28;20042;-83
2022/08/24 09:00:16;;;;;;;3.25;1.58;;;22.20;99.90;;;;;;5023964;28;20113;-83
2022/08/24 09:03:16;;;;;;;3.92;1.52;;;22.20;99.90;;;;;;5008027;28;20054;-83
2022/08/24 09:05:57;;;;;;;3.40;1.88;;;22.20;99.90;;;;;;4996097;28;20514;-83
2022/08/24 09:08:26;;;;;;;5.43;1.52;;;22.30;99.90;;;;;;5015442;28;20060;-83
2022/08/24 09:11:22;;;;;;;6.88;1.70;;;22.30;99.90;;;;;;5019984;28;20112;-83
2022/08/24 09:14:09;;;;;;;3.95;1.40;;;22.40;99.90;;;;;;5020433;28;20042;-84
2022/08/24 09:16:35;;;;;;;3.47;1.40;;;22.30;99.90;;;;;;5018477;28;20049;-83
2022/08/24 09:19:44;;;;;;;3.90;2.13;;;22.40;99.90;;;;;;5019410;28;20049;-83
2022/08/24 09:22:17;;;;;;;5.18;1.92;;;22.40;99.90;;;;;;4985091;28;20049;-83
2022/08/24 09:24:49;;;;;;;5.93;1.70;;;22.40;99.90;;;;;;5010471;28;21988;-83
2022/08/24 09:27:31;;;;;;;4.07;1.50;;;22.50;99.90;;;;;;5006096;28;20465;-85
2022/08/24 09:30:22;;;;;;;3.58;1.42;;;22.50;99.90;;;;;;5023266;28;20038;-83
2022/08/24 09:33:14;;;;;;;1.83;1.20;;;22.50;99.90;;;;;;5024019;28;20073;-84
2022/08/24 09:35:49;;;;;;;;;;;22.60;99.90;;;;;;5007544;28;21107;-84
2022/08/24 09:38:42;;;;;;;1.75;1.10;;;22.50;99.90;;;;;;5024817;28;20489;-83
2022/08/24 09:41:38;;;;;;;2.70;1.40;;;22.60;99.90;;;;;;5006980;28;20136;-83
2022/08/24 09:44:09;;;;;;;3.22;1.02;;;22.60;99.90;;;;;;5024784;28;20487;-83
2022/08/24 09:46:57;;;;;;;2.28;1.20;;;22.70;99.90;;;;;;5022161;28;20129;-83
2022/08/24 09:49:41;;;;;;;6.72;0.98;;;22.80;99.90;;;;;;5009032;28;20054;-83
2022/08/24 09:52:12;;;;;;;2.55;1.08;;;22.80;99.90;;;;;;5008433;28;20159;-83
2022/08/24 09:54:56;;;;;;;1.48;1.20;;;22.90;99.90;;;;;;5023347;28;20034;-84
2022/08/24 09:57:43;;;;;;;1.30;0.90;;;22.90;99.90;;;;;;5007074;28;20034;-83
2022/08/24 10:00:22;;;;;;;5.88;1.13;;;22.90;99.90;;;;;;5007849;28;20046;-84
2022/08/24 10:03:22;;;;;;;1.48;1.20;;;23.00;99.90;;;;;;5008842;28;20057;-84
2022/08/24 10:06:06;;;;;;;2.25;0.73;;;23.00;99.90;;;;;;4988482;28;20050;-83
2022/08/24 10:09:06;;;;;;;0.98;0.88;;;23.10;99.90;;;;;;5010791;28;20057;-83
2022/08/24 10:12:01;;;;;;;1.63;1.00;;;23.10;99.90;;;;;;5011565;28;20050;-83
2022/08/24 10:14:48;;;;;;;1.15;0.80;;;23.10;99.90;;;;;;5014327;28;20044;-83
2022/08/24 10:17:26;;;;;;;0.57;0.55;;;23.10;99.90;;;;;;5011508;28;20076;-83
2022/08/24 10:20:02;;;;;;;1.58;1.00;;;23.20;99.90;;;;;;5016582;28;20077;-83
2022/08/24 10:22:40;;;;;;;2.20;1.20;;;23.30;99.90;;;;;;5011780;28;20074;-83
2022/08/24 10:25:21;;;;;;;4.70;1.10;;;23.40;99.90;;;;;;5009749;28;20045;-83
2022/08/24 10:28:09;;;;;;;4.77;1.10;;;23.50;99.90;;;;;;5024292;28;20092;-83
2022/08/24 10:31:03;;;;;;;1.00;0.80;;;23.60;99.90;;;;;;5009257;28;20353;-83
2022/08/24 10:33:44;;;;;;;0.75;0.70;;;23.60;99.90;;;;;;5008606;28;20107;-83
2022/08/24 10:36:27;;;;;;;2.25;1.20;;;23.50;99.90;;;;;;5007347;28;20046;-83
2022/08/24 10:39:40;;;;;;;1.27;0.93;;;23.50;99.90;;;;;;5006625;28;20145;-83
2022/08/24 10:45:45;;;;;;;1.42;1.10;;;23.50;99.90;;;;;;5008632;28;20520;-83
2022/08/24 10:48:29;;;;;;;1.83;1.15;;;23.50;99.90;;;;;;5007812;28;20041;-83
2022/08/24 10:51:33;;;;;;;3.20;1.10;;;23.60;99.90;;;;;;5007859;28;20053;-83
2022/08/24 10:53:59;;;;;;;0.65;0.65;;;23.60;99.90;;;;;;5024607;28;20092;-83
2022/08/24 10:56:46;;;;;;;1.80;0.93;;;23.50;99.90;;;;;;5023494;28;20652;-84
2022/08/24 10:59:23;;;;;;;2.58;1.60;;;23.60;99.90;;;;;;5008071;28;20554;-83
2022/08/24 11:02:10;;;;;;;2.35;0.90;;;23.70;99.90;;;;;;5008904;28;20034;-84
2022/08/24 11:04:38;;;;;;;1.50;0.95;;;23.80;99.90;;;;;;5008035;28;20911;-84
2022/08/24 11:07:19;;;;;;;1.10;0.80;;;23.80;99.90;;;;;;5006737;28;20116;-84
2022/08/24 11:09:53;;;;;;;1.48;0.80;;;23.90;99.90;;;;;;5007082;28;20042;-84
2022/08/24 11:12:27;;;;;;;1.15;0.90;;;23.90;99.90;;;;;;5008227;28;20084;-83
2022/08/24 11:14:56;;;;;;;4.30;0.90;;;23.90;99.90;;;;;;5023152;28;20119;-83
2022/08/24 11:17:24;;;;;;;1.50;1.00;;;24.00;99.90;;;;;;5012764;28;20041;-83
2022/08/24 11:19:51;;;;;;;1.92;1.00;;;24.30;99.90;;;;;;5023059;28;20120;-83
2022/08/24 11:22:29;;;;;;;3.03;0.80;;;24.20;99.90;;;;;;5008225;28;20609;-83
2022/08/24 11:25:00;;;;;;;1.45;0.98;;;24.30;99.90;;;;;;5008321;28;20042;-83
2022/08/24 11:27:32;;;;;;;2.00;1.45;;;24.40;99.90;;;;;;5024400;28;20766;-86
2022/08/24 11:30:03;;;;;;;2.90;0.75;;;24.50;99.90;;;;;;5023381;28;20257;-84
2022/08/24 11:32:55;;;;;;;3.55;0.90;;;24.50;99.90;;;;;;5007596;28;20044;-84
2022/08/24 11:35:33;;;;;;;3.33;2.22;;;24.50;99.90;;;;;;5004987;28;20053;-85
2022/08/24 11:38:07;;;;;;;3.20;1.00;;;24.50;99.90;;;;;;5024843;28;20058;-84
2022/08/24 11:40:39;;;;;;;4.28;1.17;;;24.50;99.90;;;;;;5009778;28;20039;-84
2022/08/24 11:43:28;;;;;;;10.45;1.30;;;24.40;99.90;;;;;;5007836;28;20123;-84
2022/08/24 11:46:18;;;;;;;3.40;1.00;;;24.40;99.90;;;;;;5023481;28;20038;-84
2022/08/24 11:48:56;;;;;;;2.20;1.45;;;24.40;99.90;;;;;;5007646;28;20057;-84
2022/08/24 11:51:34;;;;;;;9.00;1.63;;;24.40;99.90;;;;;;5021964;28;20042;-84
2022/08/24 11:54:27;;;;;;;3.05;0.93;;;24.40;99.90;;;;;;5012893;28;20097;-83
2022/08/24 11:57:02;;;;;;;3.72;1.50;;;24.50;99.90;;;;;;5005110;28;20089;-84
2022/08/24 11:59:53;;;;;;;2.20;0.80;;;24.50;99.90;;;;;;5006077;28;20049;-84
2022/08/24 12:02:22;;;;;;;1.98;0.95;;;24.60;99.90;;;;;;5005184;28;20144;-84
2022/08/24 12:05:03;;;;;;;3.53;1.05;;;24.70;99.90;;;;;;5005619;28;20524;-84
2022/08/24 12:08:04;;;;;;;3.22;0.80;;;24.80;99.90;;;;;;5006674;28;20604;-85
2022/08/24 12:10:49;;;;;;;3.50;1.00;;;24.90;99.90;;;;;;5022983;28;20906;-85
2022/08/24 12:13:41;;;;;;;1.73;0.88;;;25.00;99.90;;;;;;5006502;28;20512;-85
2022/08/24 12:16:27;;;;;;;4.90;1.15;;;25.20;99.90;;;;;;5005805;28;20050;-84
2022/08/24 12:18:59;;;;;;;5.13;0.95;;;25.30;99.90;;;;;;5005743;28;20049;-84
2022/08/24 12:21:31;;;;;;;2.20;0.90;;;25.20;99.90;;;;;;5005134;28;20525;-84
2022/08/24 12:24:02;;;;;;;2.97;0.63;;;25.20;99.90;;;;;;5006672;28;20086;-84
2022/08/24 12:26:31;;;;;;;;;;;25.20;99.90;;;;;;5013546;28;20066;-84
2022/08/24 12:29:27;;;;;;;2.28;1.30;;;25.20;99.90;;;;;;5008600;28;19932;-84
2022/08/24 12:32:15;;;;;;;1.10;0.80;;;25.20;99.90;;;;;;5007850;28;20151;-84
2022/08/24 12:34:53;;;;;;;4.05;1.45;;;25.20;99.90;;;;;;5005573;28;20049;-84
2022/08/24 12:37:48;;;;;;;1.75;1.00;;;25.20;99.90;;;;;;5008332;28;20045;-84
2022/08/24 12:40:38;;;;;;;1.02;0.65;;;25.30;99.90;;;;;;5023455;28;20097;-84
2022/08/24 12:43:22;;;;;;;2.75;0.85;;;25.30;99.90;;;;;;5007037;28;20042;-84
2022/08/24 12:45:48;;;;;;;3.78;0.85;;;25.40;99.90;;;;;;5009684;28;20655;-83
2022/08/24 12:48:26;;;;;;;3.45;0.73;;;25.40;99.90;;;;;;5009829;28;20104;-84
2022/08/24 12:51:01;;;;;;;3.45;0.52;;;25.50;99.90;;;;;;5011171;28;20152;-84
2022/08/24 12:53:27;;;;;;;1.45;0.80;;;25.40;99.90;;;;;;5012516;28;20135;-84
2022/08/24 12:56:04;;;;;;;3.53;0.80;;;25.40;99.90;;;;;;5011801;28;20061;-84
2022/08/24 12:58:52;;;;;;;0.85;0.80;;;25.40;99.90;;;;;;5011284;28;20038;-84
2022/08/24 13:01:20;;;;;;;1.70;0.80;;;25.40;99.70;;;;;;5015548;28;20049;-84
2022/08/24 13:04:00;;;;;;;4.40;0.77;;;25.40;99.60;;;;;;5010575;28;20057;-83
2022/08/24 13:06:44;;;;;;;0.50;0.50;;;25.40;99.30;;;;;;5008599;28;20111;-84
2022/08/24 13:09:15;;;;;;;2.22;0.70;;;25.50;98.90;;;;;;5015788;28;20046;-83
2022/08/24 13:11:41;;;;;;;0.95;0.73;;;25.50;98.80;;;;;;5009595;28;20046;-84
2022/08/24 13:14:14;;;;;;;3.35;0.80;;;25.40;98.70;;;;;;5008009;28;20112;-84
2022/08/24 13:16:55;;;;;;;1.52;0.88;;;25.50;98.50;;;;;;5025953;28;20137;-84
2022/08/24 13:19:27;;;;;;;1.77;1.13;;;25.60;98.10;;;;;;5009125;28;20050;-84
2022/08/24 13:22:19;;;;;;;1.58;0.60;;;25.70;97.80;;;;;;5009494;28;20042;-84
2022/08/24 13:24:46;;;;;;;;;;;25.80;97.60;;;;;;5010588;28;20065;-84
2022/08/24 13:27:11;;;;;;;3.05;0.77;;;25.90;97.40;;;;;;5025481;28;19984;-84
2022/08/24 13:29:47;;;;;;;2.67;1.02;;;25.90;97.40;;;;;;5008827;28;20121;-84
2022/08/24 13:32:24;;;;;;;2.35;0.80;;;25.90;97.00;;;;;;5024289;28;20045;-84
2022/08/24 13:34:50;;;;;;;1.73;0.90;;;25.90;96.70;;;;;;5008374;28;20398;-84
2022/08/24 13:37:23;;;;;;;0.68;0.60;;;25.90;96.60;;;;;;5008370;28;20567;-84